Zaanborg — PCKW — position and weather

sailwx.info

Track history (hours):
 
Tides and Currents Weather Stations Pressure Air Temp Water Temp Dewpoint Dewpoint Depression Visibility Wind Speed Wind Dir Waves Ship Positions

Zaanborg

Last reported at 2017-Nov-18 02:30 UTC. Time now 2017-Nov-18 04:53 UTC.
Position N 36°34' W 009°14'.

Length 118 m; draft 7.2 m.

Type: Cargo ship. MMSI: 244830818.

Date/timePositionNaut miles runAvg speedWind from/ knotsBaromVisibWave heightAir tempDewpointWater temp
2017-Nov-18 02:30N 36°34' W 009°14'711.5
2017-Nov-18 01:56N 36°38' W 009°21'1412.5
2017-Nov-18 00:47N 36°49' W 009°32'312.5
2017-Nov-18 00:30N 36°52' W 009°34'612.4
2017-Nov-18 00:00N 36°58' W 009°36'1112.4
2017-Nov-17 23:08N 37°08' W 009°38'212.4
2017-Nov-17 23:00N 37°10' W 009°39'1912.5
2017-Nov-17 21:29N 37°28' W 009°44'613.0
2017-Nov-17 21:00N 37°34' W 009°46'612.9
2017-Nov-17 20:30N 37°41' W 009°48'612.8
2017-Nov-17 20:00N 37°47' W 009°50'612.7
2017-Nov-17 19:30N 37°53' W 009°52'612.5
2017-Nov-17 19:00N 37°59' W 009°54'612.8
2017-Nov-17 18:30N 38°05' W 009°55'612.8
2017-Nov-17 18:00N 38°12' W 009°57'713.0
2017-Nov-17 17:30N 38°18' W 009°59'612.9
2017-Nov-17 17:00N 38°24' W 010°00'612.6
2017-Nov-17 16:30N 38°31' W 010°02'612.2
2017-Nov-17 16:00N 38°36' W 010°04'612.3
2017-Nov-17 15:30N 38°42' W 010°06'612.0
2017-Nov-17 15:00N 38°48' W 010°07'612.1
2017-Nov-17 14:31N 38°54' W 010°07'712.6
2017-Nov-17 13:59N 39°01' W 010°07'612.1
2017-Nov-17 13:29N 39°07' W 010°07'612.4
2017-Nov-17 13:00N 39°13' W 010°07'1912.7
2017-Nov-17 11:31N 39°32' W 010°07'012.2
2017-Nov-17 11:30N 39°32' W 010°07'49812.0
2017-Nov-15 18:11N 47°29' W 006°53'512.5
2017-Nov-15 17:46N 47°34' W 006°49'613.4
2017-Nov-15 17:21N 47°39' W 006°45'612.9
2017-Nov-15 16:54N 47°44' W 006°41'612.9
2017-Nov-15 16:25N 47°49' W 006°36'1112.6
2017-Nov-15 15:32N 47°59' W 006°28'212.2
2017-Nov-15 15:24N 48°00' W 006°27'2211.8
2017-Nov-15 13:32N 48°20' W 006°12'611.3
2017-Nov-15 13:02N 48°25' W 006°09'411.3
2017-Nov-15 12:41N 48°28' W 006°06'211.3
2017-Nov-15 12:30N 48°30' W 006°04'611.1
2017-Nov-15 11:58N 48°36' W 006°00'511.4
2017-Nov-15 11:30N 48°40' W 005°56'611.4
2017-Nov-15 10:57N 48°45' W 005°51'711.8
2017-Nov-15 10:24N 48°51' W 005°46'512.2
2017-Nov-15 10:00N 48°55' W 005°41'1412.8
2017-Nov-15 08:53N 49°03' W 005°23'7612.4
2017-Nov-15 02:44N 49°42' W 003°43'511.2
2017-Nov-15 02:17N 49°44' W 003°36'511.3
2017-Nov-15 01:49N 49°46' W 003°28'411.7
2017-Nov-15 01:30N 49°48' W 003°23'612.1
2017-Nov-15 01:01N 49°50' W 003°15'612.7
2017-Nov-15 00:30N 49°53' W 003°06'713.3
2017-Nov-15 00:01N 49°56' W 002°57'713.8
2017-Nov-14 23:31N 49°59' W 002°47'714.1
2017-Nov-14 23:00N 50°02' W 002°37'2214.2
2017-Nov-14 21:26N 50°09' W 002°04'813.2
2017-Nov-14 20:52N 50°11' W 001°53'912.3
2017-Nov-14 20:08N 50°14' W 001°39'311.6
2017-Nov-14 19:55N 50°14' W 001°36'511.2
2017-Nov-14 19:30N 50°16' W 001°29'4210.0
2017-Nov-14 15:19N 50°27' W 000°26'411.6
2017-Nov-14 15:00N 50°29' W 000°20'612.0
2017-Nov-14 14:30N 50°30' W 000°11'612.4
2017-Nov-14 14:01N 50°32' W 000°02'612.7
2017-Nov-14 13:30N 50°34' E 000°08'612.9
2017-Nov-14 13:01N 50°36' E 000°17'612.9
2017-Nov-14 12:31N 50°38' E 000°27'612.6
2017-Nov-14 12:00N 50°40' E 000°36'612.6
2017-Nov-14 11:30N 50°43' E 000°45'612.0
2017-Nov-14 11:00N 50°47' E 000°52'611.6
2017-Nov-14 10:30N 50°50' E 000°60'611.0
2017-Nov-14 10:00N 50°54' E 001°06'510.5
2017-Nov-14 09:31N 50°57' E 001°13'5 9.9
2017-Nov-14 09:00N 51°00' E 001°19'5 9.8
2017-Nov-14 08:30N 51°04' E 001°25'510.1
2017-Nov-14 08:00N 51°07' E 001°31'510.7
2017-Nov-14 07:30N 51°10' E 001°38'611.2
2017-Nov-14 07:00N 51°14' E 001°45'612.2
2017-Nov-14 06:30N 51°19' E 001°50'713.1
2017-Nov-14 06:00N 51°25' E 001°54'713.4
2017-Nov-14 05:30N 51°30' E 002°01'713.3
2017-Nov-14 05:00N 51°35' E 002°08'713.4
2017-Nov-14 04:30N 51°40' E 002°15'713.1
2017-Nov-14 04:00N 51°45' E 002°22'2212.4
2017-Nov-14 02:14N 52°01' E 002°46'611.5
2017-Nov-14 01:45N 52°05' E 002°52'311.3
2017-Nov-14 01:30N 52°08' E 002°55'611.1
2017-Nov-14 00:59N 52°12' E 003°01'610.9
2017-Nov-14 00:25N 52°17' E 003°07'510.8
2017-Nov-14 00:00N 52°21' E 003°11'710.6
2017-Nov-13 23:18N 52°27' E 003°18'310.6
2017-Nov-13 22:59N 52°29' E 003°22'510.6
2017-Nov-13 22:30N 52°33' E 003°26'610.9
2017-Nov-13 22:00N 52°38' E 003°32'39311.6
2017-Nov-12 12:06N 57°47' E 010°36'311.6
2017-Nov-12 11:53N 57°47' E 010°41'411.4
2017-Nov-12 11:30N 57°46' E 010°49'612.2
2017-Nov-12 10:59N 57°42' E 010°58'611.9
2017-Nov-12 10:30N 57°38' E 011°06'612.2
2017-Nov-12 10:00N 57°34' E 011°15'611.2
2017-Nov-12 09:30N 57°30' E 011°22'611.7
2017-Nov-12 09:00N 57°25' E 011°27'612.1
2017-Nov-12 08:30N 57°19' E 011°31'612.3
2017-Nov-12 08:00N 57°13' E 011°35'612.2
2017-Nov-12 07:28N 57°08' E 011°40'712.2
2017-Nov-12 06:55N 57°02' E 011°46'4711.2
2017-Nov-12 02:42N 56°19' E 012°21'210.0
2017-Nov-12 02:28N 56°17' E 012°23'510.7
2017-Nov-12 02:00N 56°12' E 012°27'510.9
2017-Nov-12 01:30N 56°08' E 012°32'510.2
2017-Nov-12 01:00N 56°04' E 012°38'510.1
2017-Nov-12 00:30N 55°59' E 012°42'611.0
2017-Nov-12 00:00N 55°54' E 012°44'611.3
2017-Nov-11 23:30N 55°48' E 012°43'611.2
2017-Nov-11 23:01N 55°43' E 012°41'510.3
2017-Nov-11 22:31N 55°38' E 012°42'5 9.0
2017-Nov-11 22:00N 55°33' E 012°42'510.2
2017-Nov-11 21:31N 55°28' E 012°42'611.4
2017-Nov-11 21:00N 55°22' E 012°41'5 9.4
2017-Nov-11 20:31N 55°18' E 012°44'611.0
2017-Nov-11 20:00N 55°16' E 012°53'611.1
2017-Nov-11 19:31N 55°16' E 013°03'611.2
2017-Nov-11 19:00N 55°15' E 013°13'611.0
2017-Nov-11 18:30N 55°15' E 013°23'1510.8
2017-Nov-11 17:09N 55°14' E 013°48'211.0
2017-Nov-11 17:00N 55°13' E 013°51'810.9
2017-Nov-11 16:14N 55°13' E 014°06'310.8
2017-Nov-11 15:56N 55°13' E 014°11'510.6
2017-Nov-11 15:28N 55°15' E 014°19'611.3
2017-Nov-11 14:59N 55°19' E 014°26'611.8
2017-Nov-11 14:30N 55°24' E 014°32'611.5
2017-Nov-11 14:00N 55°27' E 014°40'611.0
2017-Nov-11 13:30N 55°30' E 014°48'510.2
2017-Nov-11 12:58N 55°32' E 014°57'5 9.9
2017-Nov-11 12:28N 55°35' E 015°05'4 9.7
2017-Nov-11 12:00N 55°37' E 015°11'5 9.5
2017-Nov-11 11:30N 55°40' E 015°18'5 9.3
2017-Nov-11 11:00N 55°42' E 015°25'5 9.4
2017-Nov-11 10:30N 55°45' E 015°32'4 8.8
2017-Nov-11 10:01N 55°47' E 015°39'4 8.6
2017-Nov-11 09:30N 55°49' E 015°46'4 8.8
2017-Nov-11 09:00N 55°51' E 015°53'4 8.4
2017-Nov-11 08:31N 55°53' E 015°59'4 7.9
2017-Nov-11 08:00N 55°55' E 016°05'4 7.7
2017-Nov-11 07:30N 55°57' E 016°11'4 7.5
2017-Nov-11 07:00N 55°59' E 016°17'4 7.4
2017-Nov-11 06:30N 56°01' E 016°23'4 7.5
2017-Nov-11 06:00N 56°03' E 016°28'4 8.4
2017-Nov-11 05:30N 56°05' E 016°34'4 8.9
2017-Nov-11 05:00N 56°08' E 016°41'5 9.1
2017-Nov-11 04:31N 56°12' E 016°46'510.8
2017-Nov-11 04:00N 56°17' E 016°49'22911.1
2017-Nov-10 07:27N 59°47' E 019°39'512.2
2017-Nov-10 07:00N 59°51' E 019°32'612.1
2017-Nov-10 06:30N 59°56' E 019°24'612.1
2017-Nov-10 06:00N 60°01' E 019°17'612.4
2017-Nov-10 05:30N 60°05' E 019°09'612.0
2017-Nov-10 05:00N 60°10' E 019°01'611.8
2017-Nov-10 04:30N 60°16' E 019°00'612.0
2017-Nov-10 04:00N 60°22' E 018°59'  
Track history (hours):
 
Tides and Currents Weather Stations Pressure Air Temp Water Temp Dewpoint Dewpoint Depression Visibility Wind Speed Wind Dir Waves Ship Positions

Zaanborg

Last reported at 2017-Nov-18 02:30 UTC. Time now 2017-Nov-18 04:53 UTC.
Position N 36°34' W 009°14'.

Length 118 m; draft 7.2 m.

Type: Cargo ship. MMSI: 244830818.

Date/timePositionNaut miles runAvg speedWind from/ knotsBaromVisibWave heightAir tempDewpointWater temp
2017-Nov-18 02:30N 36°34' W 009°14'711.5
2017-Nov-18 01:56N 36°38' W 009°21'1412.5
2017-Nov-18 00:47N 36°49' W 009°32'312.5
2017-Nov-18 00:30N 36°52' W 009°34'612.4
2017-Nov-18 00:00N 36°58' W 009°36'1112.4
2017-Nov-17 23:08N 37°08' W 009°38'212.4
2017-Nov-17 23:00N 37°10' W 009°39'1912.5
2017-Nov-17 21:29N 37°28' W 009°44'613.0
2017-Nov-17 21:00N 37°34' W 009°46'612.9
2017-Nov-17 20:30N 37°41' W 009°48'612.8
2017-Nov-17 20:00N 37°47' W 009°50'612.7
2017-Nov-17 19:30N 37°53' W 009°52'612.5
2017-Nov-17 19:00N 37°59' W 009°54'612.8
2017-Nov-17 18:30N 38°05' W 009°55'612.8
2017-Nov-17 18:00N 38°12' W 009°57'713.0
2017-Nov-17 17:30N 38°18' W 009°59'612.9
2017-Nov-17 17:00N 38°24' W 010°00'612.6
2017-Nov-17 16:30N 38°31' W 010°02'612.2
2017-Nov-17 16:00N 38°36' W 010°04'612.3
2017-Nov-17 15:30N 38°42' W 010°06'612.0
2017-Nov-17 15:00N 38°48' W 010°07'612.1
2017-Nov-17 14:31N 38°54' W 010°07'712.6
2017-Nov-17 13:59N 39°01' W 010°07'612.1
2017-Nov-17 13:29N 39°07' W 010°07'612.4
2017-Nov-17 13:00N 39°13' W 010°07'1912.7
2017-Nov-17 11:31N 39°32' W 010°07'012.2
2017-Nov-17 11:30N 39°32' W 010°07'49812.0
2017-Nov-15 18:11N 47°29' W 006°53'512.5
2017-Nov-15 17:46N 47°34' W 006°49'613.4
2017-Nov-15 17:21N 47°39' W 006°45'612.9
2017-Nov-15 16:54N 47°44' W 006°41'612.9
2017-Nov-15 16:25N 47°49' W 006°36'1112.6
2017-Nov-15 15:32N 47°59' W 006°28'212.2
2017-Nov-15 15:24N 48°00' W 006°27'2211.8
2017-Nov-15 13:32N 48°20' W 006°12'611.3
2017-Nov-15 13:02N 48°25' W 006°09'411.3
2017-Nov-15 12:41N 48°28' W 006°06'211.3
2017-Nov-15 12:30N 48°30' W 006°04'611.1
2017-Nov-15 11:58N 48°36' W 006°00'511.4
2017-Nov-15 11:30N 48°40' W 005°56'611.4
2017-Nov-15 10:57N 48°45' W 005°51'711.8
2017-Nov-15 10:24N 48°51' W 005°46'512.2
2017-Nov-15 10:00N 48°55' W 005°41'1412.8
2017-Nov-15 08:53N 49°03' W 005°23'7612.4
2017-Nov-15 02:44N 49°42' W 003°43'511.2
2017-Nov-15 02:17N 49°44' W 003°36'511.3
2017-Nov-15 01:49N 49°46' W 003°28'411.7
2017-Nov-15 01:30N 49°48' W 003°23'612.1
2017-Nov-15 01:01N 49°50' W 003°15'612.7
2017-Nov-15 00:30N 49°53' W 003°06'713.3
2017-Nov-15 00:01N 49°56' W 002°57'713.8
2017-Nov-14 23:31N 49°59' W 002°47'714.1
2017-Nov-14 23:00N 50°02' W 002°37'2214.2
2017-Nov-14 21:26N 50°09' W 002°04'813.2
2017-Nov-14 20:52N 50°11' W 001°53'912.3
2017-Nov-14 20:08N 50°14' W 001°39'311.6
2017-Nov-14 19:55N 50°14' W 001°36'511.2
2017-Nov-14 19:30N 50°16' W 001°29'4210.0
2017-Nov-14 15:19N 50°27' W 000°26'411.6
2017-Nov-14 15:00N 50°29' W 000°20'612.0
2017-Nov-14 14:30N 50°30' W 000°11'612.4
2017-Nov-14 14:01N 50°32' W 000°02'612.7
2017-Nov-14 13:30N 50°34' E 000°08'612.9
2017-Nov-14 13:01N 50°36' E 000°17'612.9
2017-Nov-14 12:31N 50°38' E 000°27'612.6
2017-Nov-14 12:00N 50°40' E 000°36'612.6
2017-Nov-14 11:30N 50°43' E 000°45'612.0
2017-Nov-14 11:00N 50°47' E 000°52'611.6
2017-Nov-14 10:30N 50°50' E 000°60'611.0
2017-Nov-14 10:00N 50°54' E 001°06'510.5
2017-Nov-14 09:31N 50°57' E 001°13'5 9.9
2017-Nov-14 09:00N 51°00' E 001°19'5 9.8
2017-Nov-14 08:30N 51°04' E 001°25'510.1
2017-Nov-14 08:00N 51°07' E 001°31'510.7
2017-Nov-14 07:30N 51°10' E 001°38'611.2
2017-Nov-14 07:00N 51°14' E 001°45'612.2
2017-Nov-14 06:30N 51°19' E 001°50'713.1
2017-Nov-14 06:00N 51°25' E 001°54'713.4
2017-Nov-14 05:30N 51°30' E 002°01'713.3
2017-Nov-14 05:00N 51°35' E 002°08'713.4
2017-Nov-14 04:30N 51°40' E 002°15'713.1
2017-Nov-14 04:00N 51°45' E 002°22'2212.4
2017-Nov-14 02:14N 52°01' E 002°46'611.5
2017-Nov-14 01:45N 52°05' E 002°52'311.3
2017-Nov-14 01:30N 52°08' E 002°55'611.1
2017-Nov-14 00:59N 52°12' E 003°01'610.9
2017-Nov-14 00:25N 52°17' E 003°07'510.8
2017-Nov-14 00:00N 52°21' E 003°11'710.6
2017-Nov-13 23:18N 52°27' E 003°18'310.6
2017-Nov-13 22:59N 52°29' E 003°22'510.6
2017-Nov-13 22:30N 52°33' E 003°26'610.9
2017-Nov-13 22:00N 52°38' E 003°32'39311.6
2017-Nov-12 12:06N 57°47' E 010°36'311.6
2017-Nov-12 11:53N 57°47' E 010°41'411.4
2017-Nov-12 11:30N 57°46' E 010°49'612.2
2017-Nov-12 10:59N 57°42' E 010°58'611.9
2017-Nov-12 10:30N 57°38' E 011°06'612.2
2017-Nov-12 10:00N 57°34' E 011°15'611.2
2017-Nov-12 09:30N 57°30' E 011°22'611.7
2017-Nov-12 09:00N 57°25' E 011°27'612.1
2017-Nov-12 08:30N 57°19' E 011°31'612.3
2017-Nov-12 08:00N 57°13' E 011°35'612.2
2017-Nov-12 07:28N 57°08' E 011°40'712.2
2017-Nov-12 06:55N 57°02' E 011°46'4711.2
2017-Nov-12 02:42N 56°19' E 012°21'210.0
2017-Nov-12 02:28N 56°17' E 012°23'510.7
2017-Nov-12 02:00N 56°12' E 012°27'510.9
2017-Nov-12 01:30N 56°08' E 012°32'510.2
2017-Nov-12 01:00N 56°04' E 012°38'510.1
2017-Nov-12 00:30N 55°59' E 012°42'611.0
2017-Nov-12 00:00N 55°54' E 012°44'611.3
2017-Nov-11 23:30N 55°48' E 012°43'611.2
2017-Nov-11 23:01N 55°43' E 012°41'510.3
2017-Nov-11 22:31N 55°38' E 012°42'5 9.0
2017-Nov-11 22:00N 55°33' E 012°42'510.2
2017-Nov-11 21:31N 55°28' E 012°42'611.4
2017-Nov-11 21:00N 55°22' E 012°41'5 9.4
2017-Nov-11 20:31N 55°18' E 012°44'611.0
2017-Nov-11 20:00N 55°16' E 012°53'611.1
2017-Nov-11 19:31N 55°16' E 013°03'611.2
2017-Nov-11 19:00N 55°15' E 013°13'611.0
2017-Nov-11 18:30N 55°15' E 013°23'1510.8
2017-Nov-11 17:09N 55°14' E 013°48'211.0
2017-Nov-11 17:00N 55°13' E 013°51'810.9
2017-Nov-11 16:14N 55°13' E 014°06'310.8
2017-Nov-11 15:56N 55°13' E 014°11'510.6
2017-Nov-11 15:28N 55°15' E 014°19'611.3
2017-Nov-11 14:59N 55°19' E 014°26'611.8
2017-Nov-11 14:30N 55°24' E 014°32'611.5
2017-Nov-11 14:00N 55°27' E 014°40'611.0
2017-Nov-11 13:30N 55°30' E 014°48'510.2
2017-Nov-11 12:58N 55°32' E 014°57'5 9.9
2017-Nov-11 12:28N 55°35' E 015°05'4 9.7
2017-Nov-11 12:00N 55°37' E 015°11'5 9.5
2017-Nov-11 11:30N 55°40' E 015°18'5 9.3
2017-Nov-11 11:00N 55°42' E 015°25'5 9.4
2017-Nov-11 10:30N 55°45' E 015°32'4 8.8
2017-Nov-11 10:01N 55°47' E 015°39'4 8.6
2017-Nov-11 09:30N 55°49' E 015°46'4 8.8
2017-Nov-11 09:00N 55°51' E 015°53'4 8.4
2017-Nov-11 08:31N 55°53' E 015°59'4 7.9
2017-Nov-11 08:00N 55°55' E 016°05'4 7.7
2017-Nov-11 07:30N 55°57' E 016°11'4 7.5
2017-Nov-11 07:00N 55°59' E 016°17'4 7.4
2017-Nov-11 06:30N 56°01' E 016°23'4 7.5
2017-Nov-11 06:00N 56°03' E 016°28'4 8.4
2017-Nov-11 05:30N 56°05' E 016°34'4 8.9
2017-Nov-11 05:00N 56°08' E 016°41'5 9.1
2017-Nov-11 04:31N 56°12' E 016°46'510.8
2017-Nov-11 04:00N 56°17' E 016°49'22911.1
2017-Nov-10 07:27N 59°47' E 019°39'512.2
2017-Nov-10 07:00N 59°51' E 019°32'612.1
2017-Nov-10 06:30N 59°56' E 019°24'612.1
2017-Nov-10 06:00N 60°01' E 019°17'612.4
2017-Nov-10 05:30N 60°05' E 019°09'612.0
2017-Nov-10 05:00N 60°10' E 019°01'611.8
2017-Nov-10 04:30N 60°16' E 019°00'612.0
2017-Nov-10 04:00N 60°22' E 018°59'  

Dump ship's entire track history